sensor_id;sensor_type;location;lat;lon;timestamp;P1;durP1;ratioP1;P2;durP2;ratioP2
25531;SDS011;13429;48.816;9.118;2023-04-08T00:01:42;25.52;;;15.02;;
25531;SDS011;13429;48.816;9.118;2023-04-08T00:04:08;24.80;;;14.85;;
25531;SDS011;13429;48.816;9.118;2023-04-08T00:06:34;24.63;;;15.27;;
25531;SDS011;13429;48.816;9.118;2023-04-08T00:09:01;24.02;;;14.45;;
25531;SDS011;13429;48.816;9.118;2023-04-08T00:11:27;22.38;;;14.32;;
25531;SDS011;13429;48.816;9.118;2023-04-08T00:13:53;23.40;;;14.55;;
25531;SDS011;13429;48.816;9.118;2023-04-08T00:16:19;27.00;;;15.40;;
25531;SDS011;13429;48.816;9.118;2023-04-08T00:18:46;21.58;;;13.77;;
25531;SDS011;13429;48.816;9.118;2023-04-08T00:21:13;21.92;;;13.90;;
25531;SDS011;13429;48.816;9.118;2023-04-08T00:23:42;23.35;;;13.43;;
25531;SDS011;13429;48.816;9.118;2023-04-08T00:26:08;25.33;;;13.85;;
25531;SDS011;13429;48.816;9.118;2023-04-08T00:28:34;22.52;;;13.35;;
25531;SDS011;13429;48.816;9.118;2023-04-08T00:31:00;25.35;;;13.75;;
25531;SDS011;13429;48.816;9.118;2023-04-08T00:36:29;23.52;;;14.50;;
25531;SDS011;13429;48.816;9.118;2023-04-08T00:38:55;22.27;;;13.43;;
25531;SDS011;13429;48.816;9.118;2023-04-08T00:41:22;23.85;;;15.13;;
25531;SDS011;13429;48.816;9.118;2023-04-08T00:43:48;22.10;;;14.18;;
25531;SDS011;13429;48.816;9.118;2023-04-08T00:46:14;22.38;;;14.48;;
25531;SDS011;13429;48.816;9.118;2023-04-08T00:48:40;22.15;;;12.98;;
25531;SDS011;13429;48.816;9.118;2023-04-08T00:51:06;24.85;;;14.70;;
25531;SDS011;13429;48.816;9.118;2023-04-08T00:53:32;25.75;;;14.75;;
25531;SDS011;13429;48.816;9.118;2023-04-08T00:56:08;22.15;;;13.60;;
25531;SDS011;13429;48.816;9.118;2023-04-08T00:58:34;24.23;;;14.82;;
25531;SDS011;13429;48.816;9.118;2023-04-08T01:01:12;23.45;;;13.90;;
25531;SDS011;13429;48.816;9.118;2023-04-08T01:03:46;22.20;;;13.82;;
25531;SDS011;13429;48.816;9.118;2023-04-08T01:06:19;25.80;;;15.85;;
25531;SDS011;13429;48.816;9.118;2023-04-08T01:08:47;23.15;;;16.15;;
25531;SDS011;13429;48.816;9.118;2023-04-08T01:11:16;25.45;;;16.48;;
25531;SDS011;13429;48.816;9.118;2023-04-08T01:13:42;21.05;;;13.40;;
25531;SDS011;13429;48.816;9.118;2023-04-08T01:16:12;20.75;;;14.23;;
25531;SDS011;13429;48.816;9.118;2023-04-08T01:18:39;24.48;;;15.30;;
25531;SDS011;13429;48.816;9.118;2023-04-08T01:21:06;26.90;;;16.25;;
25531;SDS011;13429;48.816;9.118;2023-04-08T01:26:09;24.05;;;15.50;;
25531;SDS011;13429;48.816;9.118;2023-04-08T01:28:35;25.27;;;16.70;;
25531;SDS011;13429;48.816;9.118;2023-04-08T01:31:01;26.38;;;16.60;;
25531;SDS011;13429;48.816;9.118;2023-04-08T01:33:27;28.27;;;17.90;;
25531;SDS011;13429;48.816;9.118;2023-04-08T01:35:54;24.52;;;15.70;;
25531;SDS011;13429;48.816;9.118;2023-04-08T01:38:22;29.00;;;18.65;;
25531;SDS011;13429;48.816;9.118;2023-04-08T01:40:50;26.20;;;15.82;;
25531;SDS011;13429;48.816;9.118;2023-04-08T01:43:17;29.80;;;17.88;;
25531;SDS011;13429;48.816;9.118;2023-04-08T01:45:44;30.23;;;16.42;;
25531;SDS011;13429;48.816;9.118;2023-04-08T01:48:11;27.13;;;17.17;;
25531;SDS011;13429;48.816;9.118;2023-04-08T01:50:41;27.10;;;17.50;;
25531;SDS011;13429;48.816;9.118;2023-04-08T01:53:08;28.20;;;17.37;;
25531;SDS011;13429;48.816;9.118;2023-04-08T01:55:35;28.52;;;17.52;;
25531;SDS011;13429;48.816;9.118;2023-04-08T01:58:01;32.90;;;18.23;;
25531;SDS011;13429;48.816;9.118;2023-04-08T02:00:30;30.90;;;17.05;;
25531;SDS011;13429;48.816;9.118;2023-04-08T02:02:56;27.77;;;16.33;;
25531;SDS011;13429;48.816;9.118;2023-04-08T02:05:23;27.48;;;16.40;;
25531;SDS011;13429;48.816;9.118;2023-04-08T02:07:49;28.20;;;16.88;;
25531;SDS011;13429;48.816;9.118;2023-04-08T02:10:16;32.38;;;17.23;;
25531;SDS011;13429;48.816;9.118;2023-04-08T02:12:42;30.88;;;16.77;;
25531;SDS011;13429;48.816;9.118;2023-04-08T02:15:09;26.70;;;16.15;;
25531;SDS011;13429;48.816;9.118;2023-04-08T02:17:43;29.77;;;16.75;;
25531;SDS011;13429;48.816;9.118;2023-04-08T02:20:21;25.45;;;16.55;;
25531;SDS011;13429;48.816;9.118;2023-04-08T02:22:51;28.92;;;16.90;;
25531;SDS011;13429;48.816;9.118;2023-04-08T02:25:19;26.42;;;16.40;;
25531;SDS011;13429;48.816;9.118;2023-04-08T02:27:46;27.83;;;15.25;;
25531;SDS011;13429;48.816;9.118;2023-04-08T02:30:13;27.23;;;16.75;;
25531;SDS011;13429;48.816;9.118;2023-04-08T02:32:40;27.63;;;16.60;;
25531;SDS011;13429;48.816;9.118;2023-04-08T02:35:06;30.35;;;18.13;;
25531;SDS011;13429;48.816;9.118;2023-04-08T02:37:34;30.73;;;17.65;;
25531;SDS011;13429;48.816;9.118;2023-04-08T02:40:00;29.20;;;16.95;;
25531;SDS011;13429;48.816;9.118;2023-04-08T02:42:26;28.90;;;17.63;;
25531;SDS011;13429;48.816;9.118;2023-04-08T02:44:52;31.70;;;17.30;;
25531;SDS011;13429;48.816;9.118;2023-04-08T02:47:18;30.00;;;17.52;;
25531;SDS011;13429;48.816;9.118;2023-04-08T02:49:44;31.25;;;18.05;;
25531;SDS011;13429;48.816;9.118;2023-04-08T02:52:10;39.80;;;20.35;;
25531;SDS011;13429;48.816;9.118;2023-04-08T02:54:36;31.48;;;18.52;;
25531;SDS011;13429;48.816;9.118;2023-04-08T02:57:02;34.63;;;19.83;;
25531;SDS011;13429;48.816;9.118;2023-04-08T02:59:28;33.03;;;19.85;;
25531;SDS011;13429;48.816;9.118;2023-04-08T03:01:54;34.95;;;18.55;;
25531;SDS011;13429;48.816;9.118;2023-04-08T03:04:21;33.97;;;18.80;;
25531;SDS011;13429;48.816;9.118;2023-04-08T03:06:46;34.40;;;18.55;;
25531;SDS011;13429;48.816;9.118;2023-04-08T03:09:12;36.25;;;19.55;;
25531;SDS011;13429;48.816;9.118;2023-04-08T03:11:38;31.92;;;17.67;;
25531;SDS011;13429;48.816;9.118;2023-04-08T03:14:04;35.65;;;19.80;;
25531;SDS011;13429;48.816;9.118;2023-04-08T03:16:30;36.80;;;19.80;;
25531;SDS011;13429;48.816;9.118;2023-04-08T03:18:56;39.28;;;20.33;;
25531;SDS011;13429;48.816;9.118;2023-04-08T03:21:22;41.95;;;19.55;;
25531;SDS011;13429;48.816;9.118;2023-04-08T03:23:48;41.00;;;20.83;;
25531;SDS011;13429;48.816;9.118;2023-04-08T03:26:15;34.10;;;18.02;;
25531;SDS011;13429;48.816;9.118;2023-04-08T03:28:41;34.25;;;17.85;;
25531;SDS011;13429;48.816;9.118;2023-04-08T03:31:07;37.15;;;18.70;;
25531;SDS011;13429;48.816;9.118;2023-04-08T03:33:33;37.78;;;19.98;;
25531;SDS011;13429;48.816;9.118;2023-04-08T03:35:59;34.00;;;17.20;;
25531;SDS011;13429;48.816;9.118;2023-04-08T03:38:25;34.85;;;18.58;;
25531;SDS011;13429;48.816;9.118;2023-04-08T03:40:51;32.15;;;17.42;;
25531;SDS011;13429;48.816;9.118;2023-04-08T03:43:17;35.33;;;17.02;;
25531;SDS011;13429;48.816;9.118;2023-04-08T03:45:45;30.38;;;16.27;;
25531;SDS011;13429;48.816;9.118;2023-04-08T03:48:11;37.38;;;18.85;;
25531;SDS011;13429;48.816;9.118;2023-04-08T03:50:37;32.15;;;17.25;;
25531;SDS011;13429;48.816;9.118;2023-04-08T03:53:04;31.52;;;16.48;;
25531;SDS011;13429;48.816;9.118;2023-04-08T03:55:30;30.13;;;16.23;;
25531;SDS011;13429;48.816;9.118;2023-04-08T03:57:56;32.25;;;16.77;;
25531;SDS011;13429;48.816;9.118;2023-04-08T04:00:22;32.85;;;17.20;;
25531;SDS011;13429;48.816;9.118;2023-04-08T04:02:48;31.05;;;15.77;;
25531;SDS011;13429;48.816;9.118;2023-04-08T04:05:14;28.98;;;15.75;;
25531;SDS011;13429;48.816;9.118;2023-04-08T04:07:43;33.65;;;16.77;;
25531;SDS011;13429;48.816;9.118;2023-04-08T04:10:09;40.53;;;17.48;;
25531;SDS011;13429;48.816;9.118;2023-04-08T04:12:35;30.75;;;16.60;;
25531;SDS011;13429;48.816;9.118;2023-04-08T04:15:01;34.88;;;16.48;;
25531;SDS011;13429;48.816;9.118;2023-04-08T04:17:28;34.65;;;17.25;;
25531;SDS011;13429;48.816;9.118;2023-04-08T04:19:54;29.77;;;15.52;;
25531;SDS011;13429;48.816;9.118;2023-04-08T04:22:20;31.00;;;17.45;;
25531;SDS011;13429;48.816;9.118;2023-04-08T04:24:46;35.47;;;19.75;;
25531;SDS011;13429;48.816;9.118;2023-04-08T04:27:13;36.28;;;18.38;;
25531;SDS011;13429;48.816;9.118;2023-04-08T04:29:39;34.22;;;19.08;;
25531;SDS011;13429;48.816;9.118;2023-04-08T04:32:05;34.70;;;19.92;;
25531;SDS011;13429;48.816;9.118;2023-04-08T04:34:31;36.08;;;19.77;;
25531;SDS011;13429;48.816;9.118;2023-04-08T04:36:57;41.45;;;19.58;;
25531;SDS011;13429;48.816;9.118;2023-04-08T04:39:23;34.63;;;18.50;;
25531;SDS011;13429;48.816;9.118;2023-04-08T04:41:49;34.55;;;18.13;;
25531;SDS011;13429;48.816;9.118;2023-04-08T04:44:15;33.47;;;18.52;;
25531;SDS011;13429;48.816;9.118;2023-04-08T04:46:41;39.92;;;18.40;;
25531;SDS011;13429;48.816;9.118;2023-04-08T04:49:07;35.10;;;17.40;;
25531;SDS011;13429;48.816;9.118;2023-04-08T04:51:33;34.08;;;18.58;;
25531;SDS011;13429;48.816;9.118;2023-04-08T04:54:03;33.75;;;17.17;;
25531;SDS011;13429;48.816;9.118;2023-04-08T04:56:29;31.90;;;17.80;;
25531;SDS011;13429;48.816;9.118;2023-04-08T04:58:55;33.45;;;18.02;;
25531;SDS011;13429;48.816;9.118;2023-04-08T05:01:21;30.92;;;17.85;;
25531;SDS011;13429;48.816;9.118;2023-04-08T05:03:47;39.20;;;20.95;;
25531;SDS011;13429;48.816;9.118;2023-04-08T05:06:13;37.20;;;19.48;;
25531;SDS011;13429;48.816;9.118;2023-04-08T05:08:39;35.53;;;20.95;;
25531;SDS011;13429;48.816;9.118;2023-04-08T05:11:09;36.22;;;19.67;;
25531;SDS011;13429;48.816;9.118;2023-04-08T05:13:35;33.08;;;19.42;;
25531;SDS011;13429;48.816;9.118;2023-04-08T05:16:01;34.20;;;18.80;;
25531;SDS011;13429;48.816;9.118;2023-04-08T05:18:27;31.80;;;17.35;;
25531;SDS011;13429;48.816;9.118;2023-04-08T05:20:53;33.35;;;18.52;;
25531;SDS011;13429;48.816;9.118;2023-04-08T05:23:19;37.97;;;17.88;;
25531;SDS011;13429;48.816;9.118;2023-04-08T05:25:45;34.92;;;19.75;;
25531;SDS011;13429;48.816;9.118;2023-04-08T05:28:11;32.08;;;18.05;;
25531;SDS011;13429;48.816;9.118;2023-04-08T05:30:37;38.25;;;20.67;;
25531;SDS011;13429;48.816;9.118;2023-04-08T05:33:03;35.30;;;21.75;;
25531;SDS011;13429;48.816;9.118;2023-04-08T05:35:29;45.42;;;25.30;;
25531;SDS011;13429;48.816;9.118;2023-04-08T05:37:55;41.33;;;23.13;;
25531;SDS011;13429;48.816;9.118;2023-04-08T05:40:21;39.63;;;23.20;;
25531;SDS011;13429;48.816;9.118;2023-04-08T05:42:50;37.55;;;22.30;;
25531;SDS011;13429;48.816;9.118;2023-04-08T05:45:16;39.13;;;21.83;;
25531;SDS011;13429;48.816;9.118;2023-04-08T05:47:42;40.03;;;22.20;;
25531;SDS011;13429;48.816;9.118;2023-04-08T05:50:08;38.72;;;22.02;;
25531;SDS011;13429;48.816;9.118;2023-04-08T05:52:35;36.85;;;22.20;;
25531;SDS011;13429;48.816;9.118;2023-04-08T05:55:01;37.28;;;23.15;;
25531;SDS011;13429;48.816;9.118;2023-04-08T05:57:27;40.20;;;21.25;;
25531;SDS011;13429;48.816;9.118;2023-04-08T05:59:53;42.15;;;22.77;;
25531;SDS011;13429;48.816;9.118;2023-04-08T06:02:19;40.50;;;22.52;;
25531;SDS011;13429;48.816;9.118;2023-04-08T06:04:45;39.22;;;22.38;;
25531;SDS011;13429;48.816;9.118;2023-04-08T06:07:11;36.75;;;20.67;;
25531;SDS011;13429;48.816;9.118;2023-04-08T06:09:37;40.60;;;23.60;;
25531;SDS011;13429;48.816;9.118;2023-04-08T06:12:03;38.50;;;21.02;;
25531;SDS011;13429;48.816;9.118;2023-04-08T06:14:29;42.53;;;23.33;;
25531;SDS011;13429;48.816;9.118;2023-04-08T06:16:55;42.42;;;22.77;;
25531;SDS011;13429;48.816;9.118;2023-04-08T06:19:21;36.92;;;20.75;;
25531;SDS011;13429;48.816;9.118;2023-04-08T06:21:48;40.83;;;22.00;;
25531;SDS011;13429;48.816;9.118;2023-04-08T06:24:15;38.45;;;21.20;;
25531;SDS011;13429;48.816;9.118;2023-04-08T06:26:41;38.30;;;22.38;;
25531;SDS011;13429;48.816;9.118;2023-04-08T06:29:07;36.38;;;22.40;;
25531;SDS011;13429;48.816;9.118;2023-04-08T06:31:33;32.70;;;19.27;;
25531;SDS011;13429;48.816;9.118;2023-04-08T06:33:59;37.28;;;19.90;;
25531;SDS011;13429;48.816;9.118;2023-04-08T06:36:25;36.78;;;22.80;;
25531;SDS011;13429;48.816;9.118;2023-04-08T06:38:52;39.28;;;20.95;;
25531;SDS011;13429;48.816;9.118;2023-04-08T06:41:18;37.45;;;21.35;;
25531;SDS011;13429;48.816;9.118;2023-04-08T06:43:44;36.95;;;20.30;;
25531;SDS011;13429;48.816;9.118;2023-04-08T06:46:10;35.30;;;19.52;;
25531;SDS011;13429;48.816;9.118;2023-04-08T06:48:36;33.92;;;19.08;;
25531;SDS011;13429;48.816;9.118;2023-04-08T06:51:03;36.15;;;20.73;;
25531;SDS011;13429;48.816;9.118;2023-04-08T06:53:29;36.92;;;19.65;;
25531;SDS011;13429;48.816;9.118;2023-04-08T06:55:56;34.15;;;19.10;;
25531;SDS011;13429;48.816;9.118;2023-04-08T06:58:22;34.90;;;19.42;;
25531;SDS011;13429;48.816;9.118;2023-04-08T07:00:48;32.60;;;20.30;;
25531;SDS011;13429;48.816;9.118;2023-04-08T07:03:15;36.58;;;20.10;;
25531;SDS011;13429;48.816;9.118;2023-04-08T07:05:41;33.67;;;18.27;;
25531;SDS011;13429;48.816;9.118;2023-04-08T07:08:07;26.67;;;16.58;;
25531;SDS011;13429;48.816;9.118;2023-04-08T07:10:33;30.13;;;16.92;;
25531;SDS011;13429;48.816;9.118;2023-04-08T07:13:00;27.80;;;16.70;;
25531;SDS011;13429;48.816;9.118;2023-04-08T07:15:26;28.60;;;16.63;;
25531;SDS011;13429;48.816;9.118;2023-04-08T07:17:52;27.58;;;16.58;;
25531;SDS011;13429;48.816;9.118;2023-04-08T07:20:21;29.20;;;16.90;;
25531;SDS011;13429;48.816;9.118;2023-04-08T07:22:47;28.20;;;16.80;;
25531;SDS011;13429;48.816;9.118;2023-04-08T07:25:13;30.05;;;17.60;;
25531;SDS011;13429;48.816;9.118;2023-04-08T07:27:39;27.40;;;16.95;;
25531;SDS011;13429;48.816;9.118;2023-04-08T07:30:06;24.80;;;16.02;;
25531;SDS011;13429;48.816;9.118;2023-04-08T07:32:32;31.40;;;18.15;;
25531;SDS011;13429;48.816;9.118;2023-04-08T07:34:59;25.08;;;14.77;;
25531;SDS011;13429;48.816;9.118;2023-04-08T07:37:25;32.17;;;18.20;;
25531;SDS011;13429;48.816;9.118;2023-04-08T07:39:51;29.40;;;17.30;;
25531;SDS011;13429;48.816;9.118;2023-04-08T07:42:17;27.52;;;15.60;;
25531;SDS011;13429;48.816;9.118;2023-04-08T07:44:44;30.10;;;17.13;;
25531;SDS011;13429;48.816;9.118;2023-04-08T07:47:10;25.02;;;14.68;;
25531;SDS011;13429;48.816;9.118;2023-04-08T07:49:37;22.63;;;13.82;;
25531;SDS011;13429;48.816;9.118;2023-04-08T07:52:03;23.30;;;15.05;;
25531;SDS011;13429;48.816;9.118;2023-04-08T07:54:30;21.95;;;14.18;;
25531;SDS011;13429;48.816;9.118;2023-04-08T07:56:58;19.02;;;12.48;;
25531;SDS011;13429;48.816;9.118;2023-04-08T07:59:24;20.40;;;13.38;;
25531;SDS011;13429;48.816;9.118;2023-04-08T08:01:50;20.77;;;14.10;;
25531;SDS011;13429;48.816;9.118;2023-04-08T08:04:16;20.48;;;12.43;;
25531;SDS011;13429;48.816;9.118;2023-04-08T08:06:42;19.98;;;13.07;;
25531;SDS011;13429;48.816;9.118;2023-04-08T08:09:09;19.08;;;12.10;;
25531;SDS011;13429;48.816;9.118;2023-04-08T08:11:35;20.20;;;12.52;;
25531;SDS011;13429;48.816;9.118;2023-04-08T08:14:01;20.48;;;12.93;;
25531;SDS011;13429;48.816;9.118;2023-04-08T08:16:28;21.98;;;14.07;;
25531;SDS011;13429;48.816;9.118;2023-04-08T08:18:54;21.17;;;13.65;;
25531;SDS011;13429;48.816;9.118;2023-04-08T08:21:20;22.85;;;13.73;;
25531;SDS011;13429;48.816;9.118;2023-04-08T08:23:46;20.83;;;12.80;;
25531;SDS011;13429;48.816;9.118;2023-04-08T08:26:12;17.35;;;12.50;;
25531;SDS011;13429;48.816;9.118;2023-04-08T08:28:38;20.48;;;13.20;;
25531;SDS011;13429;48.816;9.118;2023-04-08T08:31:05;18.20;;;12.95;;
25531;SDS011;13429;48.816;9.118;2023-04-08T08:33:31;20.80;;;14.85;;
25531;SDS011;13429;48.816;9.118;2023-04-08T08:35:57;21.23;;;13.57;;
25531;SDS011;13429;48.816;9.118;2023-04-08T08:38:24;22.02;;;13.60;;
25531;SDS011;13429;48.816;9.118;2023-04-08T08:40:54;17.48;;;11.85;;
25531;SDS011;13429;48.816;9.118;2023-04-08T08:43:20;19.08;;;13.77;;
25531;SDS011;13429;48.816;9.118;2023-04-08T08:45:46;18.05;;;13.65;;
25531;SDS011;13429;48.816;9.118;2023-04-08T08:48:12;18.85;;;12.80;;
25531;SDS011;13429;48.816;9.118;2023-04-08T08:50:38;19.38;;;13.48;;
25531;SDS011;13429;48.816;9.118;2023-04-08T08:53:04;18.75;;;13.73;;
25531;SDS011;13429;48.816;9.118;2023-04-08T08:55:31;19.65;;;13.80;;
25531;SDS011;13429;48.816;9.118;2023-04-08T08:58:00;21.05;;;13.93;;
25531;SDS011;13429;48.816;9.118;2023-04-08T09:00:33;20.20;;;13.55;;
25531;SDS011;13429;48.816;9.118;2023-04-08T09:03:19;24.13;;;15.05;;
25531;SDS011;13429;48.816;9.118;2023-04-08T09:05:52;18.83;;;12.88;;
25531;SDS011;13429;48.816;9.118;2023-04-08T09:10:49;20.48;;;13.95;;
25531;SDS011;13429;48.816;9.118;2023-04-08T09:13:15;19.00;;;13.52;;
25531;SDS011;13429;48.816;9.118;2023-04-08T09:16:03;19.60;;;12.52;;
25531;SDS011;13429;48.816;9.118;2023-04-08T09:18:29;18.73;;;12.38;;
25531;SDS011;13429;48.816;9.118;2023-04-08T09:20:56;18.85;;;12.30;;
25531;SDS011;13429;48.816;9.118;2023-04-08T09:23:23;20.60;;;13.57;;
25531;SDS011;13429;48.816;9.118;2023-04-08T09:26:05;17.85;;;12.02;;
25531;SDS011;13429;48.816;9.118;2023-04-08T09:28:32;20.52;;;14.45;;
25531;SDS011;13429;48.816;9.118;2023-04-08T09:30:58;15.60;;;10.98;;
25531;SDS011;13429;48.816;9.118;2023-04-08T09:33:30;19.70;;;13.70;;
25531;SDS011;13429;48.816;9.118;2023-04-08T09:35:56;18.67;;;12.75;;
25531;SDS011;13429;48.816;9.118;2023-04-08T09:38:22;15.27;;;11.73;;
25531;SDS011;13429;48.816;9.118;2023-04-08T09:40:48;21.55;;;13.30;;
25531;SDS011;13429;48.816;9.118;2023-04-08T09:43:15;18.75;;;13.98;;
25531;SDS011;13429;48.816;9.118;2023-04-08T09:45:43;17.88;;;12.85;;
25531;SDS011;13429;48.816;9.118;2023-04-08T09:48:11;18.02;;;12.73;;
25531;SDS011;13429;48.816;9.118;2023-04-08T09:50:39;18.27;;;12.43;;
25531;SDS011;13429;48.816;9.118;2023-04-08T09:53:13;16.73;;;11.98;;
25531;SDS011;13429;48.816;9.118;2023-04-08T09:55:43;18.55;;;12.48;;
25531;SDS011;13429;48.816;9.118;2023-04-08T09:58:14;17.08;;;12.00;;
25531;SDS011;13429;48.816;9.118;2023-04-08T10:00:48;18.05;;;12.38;;
25531;SDS011;13429;48.816;9.118;2023-04-08T10:05:40;18.55;;;12.65;;
25531;SDS011;13429;48.816;9.118;2023-04-08T10:08:08;16.35;;;11.52;;
25531;SDS011;13429;48.816;9.118;2023-04-08T10:10:34;16.48;;;11.98;;
25531;SDS011;13429;48.816;9.118;2023-04-08T10:13:01;17.05;;;11.50;;
25531;SDS011;13429;48.816;9.118;2023-04-08T10:15:28;13.95;;;9.88;;
25531;SDS011;13429;48.816;9.118;2023-04-08T10:18:28;17.35;;;12.15;;
25531;SDS011;13429;48.816;9.118;2023-04-08T10:23:11;16.02;;;11.25;;
25531;SDS011;13429;48.816;9.118;2023-04-08T10:25:56;15.45;;;10.43;;
25531;SDS011;13429;48.816;9.118;2023-04-08T10:28:22;14.00;;;9.55;;
25531;SDS011;13429;48.816;9.118;2023-04-08T10:30:53;13.48;;;9.50;;
25531;SDS011;13429;48.816;9.118;2023-04-08T10:38:23;13.32;;;9.45;;
25531;SDS011;13429;48.816;9.118;2023-04-08T10:40:50;14.27;;;9.85;;
25531;SDS011;13429;48.816;9.118;2023-04-08T10:43:16;20.08;;;11.57;;
25531;SDS011;13429;48.816;9.118;2023-04-08T10:45:43;16.40;;;11.05;;
25531;SDS011;13429;48.816;9.118;2023-04-08T10:48:19;17.10;;;11.05;;
25531;SDS011;13429;48.816;9.118;2023-04-08T10:50:56;16.42;;;11.35;;
25531;SDS011;13429;48.816;9.118;2023-04-08T10:53:33;15.93;;;10.48;;
25531;SDS011;13429;48.816;9.118;2023-04-08T10:56:06;14.93;;;10.85;;
25531;SDS011;13429;48.816;9.118;2023-04-08T10:58:36;14.48;;;10.32;;
25531;SDS011;13429;48.816;9.118;2023-04-08T11:01:11;14.40;;;9.82;;
25531;SDS011;13429;48.816;9.118;2023-04-08T11:03:37;15.25;;;10.63;;
25531;SDS011;13429;48.816;9.118;2023-04-08T11:06:04;15.30;;;10.43;;
25531;SDS011;13429;48.816;9.118;2023-04-08T11:08:31;14.75;;;10.63;;
25531;SDS011;13429;48.816;9.118;2023-04-08T11:10:58;16.58;;;10.65;;
25531;SDS011;13429;48.816;9.118;2023-04-08T11:13:28;15.10;;;10.48;;
25531;SDS011;13429;48.816;9.118;2023-04-08T11:15:54;14.10;;;10.25;;
25531;SDS011;13429;48.816;9.118;2023-04-08T11:18:21;16.48;;;11.48;;
25531;SDS011;13429;48.816;9.118;2023-04-08T11:20:51;11.90;;;9.15;;
25531;SDS011;13429;48.816;9.118;2023-04-08T11:23:18;15.30;;;10.02;;
25531;SDS011;13429;48.816;9.118;2023-04-08T11:25:44;13.07;;;9.75;;
25531;SDS011;13429;48.816;9.118;2023-04-08T11:28:11;17.35;;;11.93;;
25531;SDS011;13429;48.816;9.118;2023-04-08T11:30:37;14.23;;;10.35;;
25531;SDS011;13429;48.816;9.118;2023-04-08T11:33:04;17.27;;;11.20;;
25531;SDS011;13429;48.816;9.118;2023-04-08T11:35:30;14.68;;;11.40;;
25531;SDS011;13429;48.816;9.118;2023-04-08T11:37:56;15.27;;;10.93;;
25531;SDS011;13429;48.816;9.118;2023-04-08T11:40:23;13.40;;;10.50;;
25531;SDS011;13429;48.816;9.118;2023-04-08T11:42:50;15.45;;;10.60;;
25531;SDS011;13429;48.816;9.118;2023-04-08T11:45:18;14.05;;;9.82;;
25531;SDS011;13429;48.816;9.118;2023-04-08T11:47:45;15.18;;;10.95;;
25531;SDS011;13429;48.816;9.118;2023-04-08T11:50:12;15.05;;;10.48;;
25531;SDS011;13429;48.816;9.118;2023-04-08T11:52:48;15.35;;;10.85;;
25531;SDS011;13429;48.816;9.118;2023-04-08T11:57:49;14.98;;;10.48;;
25531;SDS011;13429;48.816;9.118;2023-04-08T12:00:19;15.88;;;11.15;;
25531;SDS011;13429;48.816;9.118;2023-04-08T12:02:45;14.80;;;11.07;;
25531;SDS011;13429;48.816;9.118;2023-04-08T12:05:12;17.45;;;12.05;;
25531;SDS011;13429;48.816;9.118;2023-04-08T12:07:38;13.45;;;10.23;;
25531;SDS011;13429;48.816;9.118;2023-04-08T12:10:04;21.38;;;11.95;;
25531;SDS011;13429;48.816;9.118;2023-04-08T12:12:30;14.52;;;10.00;;
25531;SDS011;13429;48.816;9.118;2023-04-08T12:14:56;16.08;;;11.40;;
25531;SDS011;13429;48.816;9.118;2023-04-08T12:17:22;15.48;;;11.57;;
25531;SDS011;13429;48.816;9.118;2023-04-08T12:19:48;16.35;;;11.10;;
25531;SDS011;13429;48.816;9.118;2023-04-08T12:22:15;14.38;;;10.00;;
25531;SDS011;13429;48.816;9.118;2023-04-08T12:24:41;12.80;;;10.15;;
25531;SDS011;13429;48.816;9.118;2023-04-08T12:27:07;13.80;;;10.10;;
25531;SDS011;13429;48.816;9.118;2023-04-08T12:29:33;16.02;;;11.10;;
25531;SDS011;13429;48.816;9.118;2023-04-08T12:31:59;12.80;;;10.10;;
25531;SDS011;13429;48.816;9.118;2023-04-08T12:34:26;16.02;;;10.85;;
25531;SDS011;13429;48.816;9.118;2023-04-08T12:36:52;14.38;;;10.57;;
25531;SDS011;13429;48.816;9.118;2023-04-08T12:39:20;15.90;;;11.48;;
25531;SDS011;13429;48.816;9.118;2023-04-08T12:41:46;13.60;;;10.30;;
25531;SDS011;13429;48.816;9.118;2023-04-08T12:44:12;17.30;;;11.73;;
25531;SDS011;13429;48.816;9.118;2023-04-08T12:46:38;14.25;;;9.52;;
25531;SDS011;13429;48.816;9.118;2023-04-08T12:49:04;16.83;;;10.30;;
25531;SDS011;13429;48.816;9.118;2023-04-08T12:51:30;15.27;;;10.20;;
25531;SDS011;13429;48.816;9.118;2023-04-08T12:53:56;17.05;;;10.70;;
25531;SDS011;13429;48.816;9.118;2023-04-08T12:56:24;14.32;;;9.95;;
25531;SDS011;13429;48.816;9.118;2023-04-08T12:58:51;14.38;;;10.45;;
25531;SDS011;13429;48.816;9.118;2023-04-08T13:01:17;15.82;;;10.77;;
25531;SDS011;13429;48.816;9.118;2023-04-08T13:03:43;14.38;;;10.93;;
25531;SDS011;13429;48.816;9.118;2023-04-08T13:06:11;15.68;;;11.55;;
25531;SDS011;13429;48.816;9.118;2023-04-08T13:08:37;12.05;;;9.15;;
25531;SDS011;13429;48.816;9.118;2023-04-08T13:11:03;14.63;;;10.55;;
25531;SDS011;13429;48.816;9.118;2023-04-08T13:13:30;17.58;;;9.45;;
25531;SDS011;13429;48.816;9.118;2023-04-08T13:15:56;13.48;;;10.73;;
25531;SDS011;13429;48.816;9.118;2023-04-08T13:18:22;15.02;;;10.98;;
25531;SDS011;13429;48.816;9.118;2023-04-08T13:20:48;14.70;;;10.43;;
25531;SDS011;13429;48.816;9.118;2023-04-08T13:23:14;15.63;;;10.32;;
25531;SDS011;13429;48.816;9.118;2023-04-08T13:25:42;19.13;;;11.57;;
25531;SDS011;13429;48.816;9.118;2023-04-08T13:28:09;13.38;;;9.38;;
25531;SDS011;13429;48.816;9.118;2023-04-08T13:30:35;12.88;;;9.50;;
25531;SDS011;13429;48.816;9.118;2023-04-08T13:33:01;17.00;;;11.15;;
25531;SDS011;13429;48.816;9.118;2023-04-08T13:35:27;13.65;;;11.00;;
25531;SDS011;13429;48.816;9.118;2023-04-08T13:37:53;17.08;;;12.10;;
25531;SDS011;13429;48.816;9.118;2023-04-08T13:40:20;18.55;;;10.25;;
25531;SDS011;13429;48.816;9.118;2023-04-08T13:42:46;15.95;;;11.10;;
25531;SDS011;13429;48.816;9.118;2023-04-08T13:45:12;13.13;;;9.40;;
25531;SDS011;13429;48.816;9.118;2023-04-08T13:47:38;14.35;;;10.35;;
25531;SDS011;13429;48.816;9.118;2023-04-08T13:50:05;16.00;;;11.18;;
25531;SDS011;13429;48.816;9.118;2023-04-08T13:52:31;12.52;;;10.15;;
25531;SDS011;13429;48.816;9.118;2023-04-08T13:54:57;16.40;;;9.68;;
25531;SDS011;13429;48.816;9.118;2023-04-08T13:57:23;16.98;;;11.15;;
25531;SDS011;13429;48.816;9.118;2023-04-08T13:59:49;19.80;;;13.25;;
25531;SDS011;13429;48.816;9.118;2023-04-08T14:02:15;14.82;;;11.05;;
25531;SDS011;13429;48.816;9.118;2023-04-08T14:04:41;17.00;;;12.10;;
25531;SDS011;13429;48.816;9.118;2023-04-08T14:07:09;13.10;;;10.02;;
25531;SDS011;13429;48.816;9.118;2023-04-08T14:09:35;17.08;;;13.20;;
25531;SDS011;13429;48.816;9.118;2023-04-08T14:12:01;16.00;;;10.88;;
25531;SDS011;13429;48.816;9.118;2023-04-08T14:14:27;15.23;;;11.43;;
25531;SDS011;13429;48.816;9.118;2023-04-08T14:16:53;15.50;;;11.23;;
25531;SDS011;13429;48.816;9.118;2023-04-08T14:19:20;13.07;;;10.10;;
25531;SDS011;13429;48.816;9.118;2023-04-08T14:21:46;16.10;;;10.35;;
25531;SDS011;13429;48.816;9.118;2023-04-08T14:24:12;16.67;;;10.65;;
25531;SDS011;13429;48.816;9.118;2023-04-08T14:26:38;13.27;;;10.15;;
25531;SDS011;13429;48.816;9.118;2023-04-08T14:29:05;16.80;;;13.10;;
25531;SDS011;13429;48.816;9.118;2023-04-08T14:31:31;14.77;;;11.13;;
25531;SDS011;13429;48.816;9.118;2023-04-08T14:33:58;15.35;;;11.00;;
25531;SDS011;13429;48.816;9.118;2023-04-08T14:36:24;13.20;;;10.45;;
25531;SDS011;13429;48.816;9.118;2023-04-08T14:38:52;12.88;;;10.15;;
25531;SDS011;13429;48.816;9.118;2023-04-08T14:41:18;18.67;;;11.85;;